METAR Formatted Surface Weather Observation
Issued by NWS

Home | Current Version | Previous Version | Text Only | Print | Product List | Glossary On
Versions: 1 2 3 4 5 6 7 8 9 10 11 12 13 14 15 16 17 18 19 20 21 22 23 24 25 26 27 28 29 30 31
962
SAUS41 KLWX 180153
MTRNHK
METAR KNHK 180152Z 15003KT 10SM FEW150 FEW280 01/M01 A3013 RMK AO2
SLP202 T00111006



USA.gov is the U.S. government's official web portal to all federal, state and local government web resources and services.